createdAt,value
2018-12-14T00:01:04.496Z,22.17
2018-12-14T00:03:32.127Z,22.27
2018-12-14T00:05:59.787Z,21.64
2018-12-14T00:08:27.432Z,22.25
2018-12-14T00:10:55.086Z,22.36
2018-12-14T00:13:22.739Z,22.21
2018-12-14T00:15:50.404Z,22.29
2018-12-14T00:18:18.056Z,22.33
2018-12-14T00:20:45.705Z,22.29
2018-12-14T00:23:13.356Z,22.25
2018-12-14T00:25:41.010Z,22.25
2018-12-14T00:28:08.660Z,22.29
2018-12-14T00:30:36.370Z,22.25
2018-12-14T00:33:04.019Z,22.26
2018-12-14T00:35:31.706Z,22.31
2018-12-14T00:37:59.406Z,22.19
2018-12-14T00:40:27.057Z,22.30
2018-12-14T00:42:54.711Z,22.25
2018-12-14T00:45:22.399Z,22.21
2018-12-14T00:47:50.090Z,22.21
2018-12-14T00:50:17.759Z,22.27
2018-12-14T00:52:45.603Z,22.25
2018-12-14T00:55:13.258Z,22.22
2018-12-14T00:57:40.899Z,22.21
2018-12-14T01:00:09.290Z,22.14
2018-12-14T01:02:36.959Z,22.22
2018-12-14T01:05:04.772Z,22.25
2018-12-14T01:07:32.435Z,22.13
2018-12-14T01:10:00.096Z,22.22
2018-12-14T01:12:27.728Z,22.23
2018-12-14T01:14:55.411Z,22.29
2018-12-14T01:17:23.121Z,22.31
2018-12-14T01:19:50.776Z,22.26
2018-12-14T01:22:18.497Z,22.26
2018-12-14T01:24:46.703Z,22.21
2018-12-14T01:27:14.353Z,22.20
2018-12-14T01:29:42.351Z,22.30
2018-12-14T01:32:10.019Z,22.22
2018-12-14T01:34:37.684Z,22.34
2018-12-14T01:37:05.326Z,22.31
2018-12-14T01:39:32.956Z,22.31
2018-12-14T01:42:04.794Z,22.32
2018-12-14T01:44:30.271Z,22.35
2018-12-14T01:46:57.903Z,22.37
2018-12-14T01:49:25.577Z,22.33
2018-12-14T01:51:53.271Z,22.27
2018-12-14T01:54:20.887Z,22.26
2018-12-14T01:56:48.520Z,22.31
2018-12-14T01:59:16.166Z,22.28
2018-12-14T02:01:43.842Z,22.24
2018-12-14T02:04:11.518Z,22.28
2018-12-14T02:06:39.281Z,22.20
2018-12-14T02:09:07.164Z,22.25
2018-12-14T02:11:34.809Z,22.23
2018-12-14T02:14:02.470Z,22.24
2018-12-14T02:16:30.107Z,22.27
2018-12-14T02:18:57.766Z,22.29
2018-12-14T02:21:25.388Z,22.32
2018-12-14T02:23:53.032Z,22.27
2018-12-14T02:26:20.697Z,22.33
2018-12-14T02:28:48.400Z,22.35
2018-12-14T02:31:16.124Z,22.33
2018-12-14T02:33:43.750Z,22.37
2018-12-14T02:36:11.383Z,22.35
2018-12-14T02:38:39.019Z,22.34
2018-12-14T02:41:06.639Z,22.45
2018-12-14T02:43:34.570Z,22.33
2018-12-14T02:46:02.360Z,22.38
2018-12-14T02:48:29.978Z,22.26
2018-12-14T02:50:57.602Z,22.21
2018-12-14T02:53:25.335Z,22.25
2018-12-14T02:55:52.948Z,22.26
2018-12-14T02:58:20.581Z,22.30
2018-12-14T03:00:48.213Z,22.31
2018-12-14T03:03:15.907Z,22.26
2018-12-14T03:05:43.584Z,22.26
2018-12-14T03:08:11.214Z,22.27
2018-12-14T03:10:38.839Z,22.30
2018-12-14T03:13:06.503Z,22.30
2018-12-14T03:15:34.139Z,22.20
2018-12-14T03:18:01.816Z,22.23
2018-12-14T03:20:29.579Z,22.28
2018-12-14T03:22:57.301Z,22.31
2018-12-14T03:25:24.977Z,22.32
2018-12-14T03:27:52.611Z,22.31
2018-12-14T03:30:20.266Z,22.34
2018-12-14T03:32:48.030Z,22.25
2018-12-14T03:35:15.737Z,22.23
2018-12-14T03:37:43.388Z,22.32
2018-12-14T03:40:11.071Z,22.30
2018-12-14T03:42:38.725Z,22.26
2018-12-14T03:45:06.356Z,22.24
2018-12-14T03:47:34.016Z,22.24
2018-12-14T03:50:01.687Z,22.20
2018-12-14T03:52:29.376Z,22.29
2018-12-14T03:54:57.025Z,22.26
2018-12-14T03:57:24.710Z,22.30
2018-12-14T03:59:52.355Z,22.37
2018-12-14T04:02:20.079Z,22.31
2018-12-14T04:04:47.736Z,22.28
2018-12-14T04:07:15.370Z,22.32
2018-12-14T04:09:43.039Z,22.25
2018-12-14T04:12:10.714Z,22.25
2018-12-14T04:14:38.396Z,22.21
2018-12-14T04:17:06.067Z,22.32
2018-12-14T04:19:33.706Z,22.34
2018-12-14T04:22:01.362Z,22.38
2018-12-14T04:24:29.139Z,22.23
2018-12-14T04:26:56.763Z,22.23
2018-12-14T04:29:24.432Z,22.24
2018-12-14T04:31:52.087Z,22.32
2018-12-14T04:34:19.868Z,22.23
2018-12-14T04:36:47.541Z,22.24
2018-12-14T04:39:15.231Z,22.26
2018-12-14T04:41:42.880Z,22.23
2018-12-14T04:44:10.545Z,22.28
2018-12-14T04:46:38.292Z,22.29
2018-12-14T04:49:06.056Z,22.22
2018-12-14T04:51:33.738Z,22.22
2018-12-14T04:54:01.421Z,22.16
2018-12-14T04:56:29.084Z,22.12
2018-12-14T04:58:56.739Z,22.21
2018-12-14T05:01:24.372Z,22.18
2018-12-14T05:03:52.023Z,22.26
2018-12-14T05:06:19.659Z,22.29
2018-12-14T05:08:47.331Z,22.24
2018-12-14T05:11:14.951Z,22.25
2018-12-14T05:13:42.609Z,22.24
2018-12-14T05:16:10.246Z,22.17
2018-12-14T05:18:37.906Z,22.25
2018-12-14T05:21:05.539Z,22.16
2018-12-14T05:23:33.208Z,22.19
2018-12-14T05:26:00.867Z,22.13
2018-12-14T05:28:28.507Z,22.21
2018-12-14T05:30:56.147Z,22.19
2018-12-14T05:33:23.789Z,22.19
2018-12-14T05:35:51.431Z,22.29
2018-12-14T05:38:19.117Z,22.26
2018-12-14T05:40:46.772Z,22.24
2018-12-14T05:43:14.420Z,22.17
2018-12-14T05:45:42.084Z,22.20
2018-12-14T05:48:09.804Z,22.05
2018-12-14T05:50:37.508Z,22.18
2018-12-14T05:53:05.208Z,22.18
2018-12-14T05:55:32.929Z,22.24
2018-12-14T05:58:00.674Z,22.18
2018-12-14T06:00:28.338Z,22.20
2018-12-14T06:02:56.043Z,22.11
2018-12-14T06:05:23.708Z,22.26
2018-12-14T06:07:51.352Z,22.20
2018-12-14T06:10:18.972Z,22.15
2018-12-14T06:12:46.648Z,22.23
2018-12-14T06:15:14.347Z,22.23
2018-12-14T06:17:42.018Z,22.25
2018-12-14T06:20:09.700Z,22.23
2018-12-14T06:22:37.335Z,22.14
2018-12-14T06:25:05.318Z,22.25
2018-12-14T06:27:33.144Z,22.20
2018-12-14T06:30:00.855Z,22.26
2018-12-14T06:32:28.588Z,22.18
2018-12-14T06:34:56.231Z,22.15
2018-12-14T06:37:24.112Z,22.17
2018-12-14T06:39:51.810Z,22.16
2018-12-14T06:42:19.859Z,22.17
2018-12-14T06:44:47.721Z,22.29
2018-12-14T06:47:15.481Z,22.26
2018-12-14T06:49:43.116Z,22.20
2018-12-14T06:52:10.806Z,22.26
2018-12-14T06:54:38.510Z,22.17
2018-12-14T06:57:06.200Z,22.25
2018-12-14T06:59:33.910Z,22.27
2018-12-14T07:02:01.595Z,22.23
2018-12-14T07:04:29.369Z,22.31
2018-12-14T07:06:57.000Z,22.28
2018-12-14T07:09:24.661Z,22.35
2018-12-14T07:11:52.333Z,22.35
2018-12-14T07:14:20.015Z,22.32
2018-12-14T07:16:47.668Z,22.31
2018-12-14T07:19:15.331Z,22.30
2018-12-14T07:21:43.004Z,22.30
2018-12-14T07:24:11.296Z,22.36
2018-12-14T07:26:39.231Z,22.35
2018-12-14T07:29:07.374Z,22.26
2018-12-14T07:31:35.128Z,22.33
2018-12-14T07:34:02.884Z,22.34
2018-12-14T07:36:30.605Z,22.30
2018-12-14T07:38:58.403Z,22.37
2018-12-14T07:41:28.209Z,22.35
2018-12-14T07:43:56.007Z,22.44
2018-12-14T07:46:23.657Z,22.30
2018-12-14T07:48:51.387Z,22.39
2018-12-14T07:51:19.103Z,22.31
2018-12-14T07:53:46.848Z,22.31
2018-12-14T07:56:14.538Z,22.29
2018-12-14T07:58:42.580Z,22.34
2018-12-14T08:01:10.278Z,22.33
2018-12-14T08:03:37.915Z,22.33
2018-12-14T08:06:05.617Z,22.30
2018-12-14T08:08:33.434Z,22.39
2018-12-14T08:11:01.191Z,22.37
2018-12-14T08:13:34.680Z,22.47
2018-12-14T08:15:58.491Z,22.39
2018-12-14T08:18:26.266Z,22.43
2018-12-14T08:20:53.870Z,22.46
2018-12-14T08:23:21.512Z,22.49
2018-12-14T08:25:49.117Z,22.49
2018-12-14T08:28:16.749Z,22.40
2018-12-14T08:30:44.357Z,22.49
2018-12-14T08:33:11.990Z,22.49
2018-12-14T08:35:39.671Z,22.50
2018-12-14T08:38:07.275Z,22.59
2018-12-14T08:40:34.903Z,22.59
2018-12-14T08:43:02.556Z,22.53
2018-12-14T08:45:30.176Z,22.60
2018-12-14T08:47:57.956Z,22.60
2018-12-14T08:50:25.567Z,22.54
2018-12-14T08:52:53.180Z,22.56
2018-12-14T08:55:20.830Z,22.58
2018-12-14T08:57:48.423Z,22.63
2018-12-14T09:00:16.043Z,22.66
2018-12-14T09:02:43.679Z,22.60
2018-12-14T09:05:11.421Z,22.62
2018-12-14T09:07:39.167Z,22.63
2018-12-14T09:10:06.787Z,22.62
2018-12-14T09:12:34.427Z,22.66
2018-12-14T09:15:02.108Z,22.68
2018-12-14T09:17:29.719Z,22.72
2018-12-14T09:19:57.608Z,22.68
2018-12-14T09:22:25.355Z,22.71
2018-12-14T09:24:52.993Z,22.73
2018-12-14T09:27:20.624Z,22.82
2018-12-14T09:29:48.395Z,22.78
2018-12-14T09:32:16.200Z,22.91
2018-12-14T09:34:43.796Z,22.85
2018-12-14T09:37:11.829Z,22.84
2018-12-14T09:39:39.469Z,22.84
2018-12-14T09:42:07.116Z,22.87
2018-12-14T09:44:34.842Z,22.92
2018-12-14T09:47:02.812Z,22.94
2018-12-14T09:49:30.873Z,22.90
2018-12-14T09:51:58.658Z,22.87
2018-12-14T09:54:26.359Z,22.89
2018-12-14T09:56:54.021Z,23.03
2018-12-14T09:59:21.646Z,22.98
2018-12-14T10:01:49.621Z,23.02
2018-12-14T10:04:17.433Z,23.00
2018-12-14T10:06:45.082Z,23.04
2018-12-14T10:09:12.711Z,23.05
2018-12-14T10:11:40.378Z,23.07
2018-12-14T10:14:08.434Z,23.17
2018-12-14T10:16:36.051Z,23.21
2018-12-14T10:19:03.895Z,23.15
2018-12-14T10:21:31.622Z,23.09
2018-12-14T10:23:59.271Z,23.18
2018-12-14T10:26:26.891Z,23.15
2018-12-14T10:28:54.923Z,23.25
2018-12-14T10:31:22.561Z,23.30
2018-12-14T10:33:50.341Z,23.38
2018-12-14T10:36:18.159Z,23.38
2018-12-14T10:38:45.870Z,23.33
2018-12-14T10:41:13.628Z,23.33
2018-12-14T10:43:41.480Z,23.39
2018-12-14T10:46:09.361Z,23.36
2018-12-14T10:48:37.219Z,23.42
2018-12-14T10:51:04.920Z,23.40
2018-12-14T10:53:32.631Z,23.47
2018-12-14T10:56:00.261Z,23.47
2018-12-14T10:58:27.885Z,23.52
2018-12-14T11:01:01.929Z,23.56
2018-12-14T11:03:29.675Z,23.55
2018-12-14T11:05:57.346Z,23.56
2018-12-14T11:08:24.983Z,23.54
2018-12-14T11:10:52.702Z,23.26
2018-12-14T11:13:20.320Z,23.64
2018-12-14T11:15:48.050Z,23.70
2018-12-14T11:18:15.716Z,23.63
2018-12-14T11:20:43.483Z,23.62
2018-12-14T11:23:11.172Z,23.67
2018-12-14T11:25:38.822Z,23.63
2018-12-14T11:28:06.468Z,23.59
2018-12-14T11:30:34.143Z,23.63
2018-12-14T11:33:02.070Z,23.61
2018-12-14T11:35:29.933Z,23.64
2018-12-14T11:37:57.682Z,23.60
2018-12-14T11:40:25.598Z,23.66
2018-12-14T11:42:53.509Z,23.66
2018-12-14T11:45:21.400Z,23.66
2018-12-14T11:47:49.148Z,23.62
2018-12-14T11:50:16.819Z,23.70
2018-12-14T11:52:44.453Z,23.73
2018-12-14T11:55:12.134Z,23.73
2018-12-14T11:57:39.915Z,23.68
2018-12-14T12:00:10.244Z,23.71
2018-12-14T12:02:43.081Z,23.66
2018-12-14T12:05:07.628Z,23.65
2018-12-14T12:07:35.328Z,23.66
2018-12-14T12:10:02.949Z,23.67
2018-12-14T12:12:30.781Z,23.59
2018-12-14T12:14:58.429Z,23.59
2018-12-14T12:17:26.126Z,23.61
2018-12-14T12:19:53.794Z,23.65
2018-12-14T12:22:21.435Z,23.61
2018-12-14T12:24:49.088Z,23.64
2018-12-14T12:27:16.729Z,23.62
2018-12-14T12:29:44.437Z,23.62
2018-12-14T12:32:12.028Z,23.74
2018-12-14T12:34:39.715Z,23.73
2018-12-14T12:37:07.439Z,23.79
2018-12-14T12:39:35.085Z,23.66
2018-12-14T12:42:02.815Z,23.72
2018-12-14T12:44:33.473Z,23.68
2018-12-14T12:47:00.284Z,23.74
2018-12-14T12:49:27.916Z,23.76
2018-12-14T12:51:55.558Z,23.73
2018-12-14T12:54:23.181Z,23.82
2018-12-14T12:56:50.983Z,23.75
2018-12-14T12:59:18.648Z,23.75
2018-12-14T13:01:46.260Z,23.85
2018-12-14T13:04:14.679Z,23.85
2018-12-14T13:06:42.277Z,23.84
2018-12-14T13:09:09.901Z,24.00
2018-12-14T13:11:37.496Z,23.92
2018-12-14T13:14:05.377Z,23.93
2018-12-14T13:16:32.977Z,23.99
2018-12-14T13:19:00.618Z,24.02
2018-12-14T13:21:28.215Z,23.91
2018-12-14T13:23:55.833Z,23.98
2018-12-14T13:26:23.444Z,24.00
2018-12-14T13:28:51.854Z,24.05
2018-12-14T13:31:19.596Z,24.00
2018-12-14T13:33:47.212Z,24.08
2018-12-14T13:36:14.853Z,24.09
2018-12-14T13:38:42.445Z,24.14
2018-12-14T13:41:10.043Z,24.10
2018-12-14T13:43:37.640Z,24.13
2018-12-14T13:46:05.258Z,24.13
2018-12-14T13:48:33.039Z,24.19
2018-12-14T13:51:00.757Z,24.23
2018-12-14T13:53:28.372Z,24.13
2018-12-14T13:55:55.969Z,24.23
2018-12-14T13:58:23.602Z,24.26
2018-12-14T14:00:51.305Z,24.26
2018-12-14T14:03:18.907Z,24.23
2018-12-14T14:05:46.496Z,24.31
2018-12-14T14:08:14.191Z,24.29
2018-12-14T14:10:41.816Z,24.42
2018-12-14T14:13:09.503Z,24.34
2018-12-14T14:15:37.245Z,24.36
2018-12-14T14:18:04.836Z,24.31
2018-12-14T14:20:32.433Z,24.37
2018-12-14T14:23:00.031Z,24.44
2018-12-14T14:25:27.964Z,24.42
2018-12-14T14:27:55.590Z,24.45
2018-12-14T14:30:23.185Z,24.43
2018-12-14T14:32:50.811Z,24.43
2018-12-14T14:35:18.441Z,24.52
2018-12-14T14:37:46.045Z,24.44
2018-12-14T14:40:13.642Z,24.51
2018-12-14T14:42:41.225Z,24.50
2018-12-14T14:45:08.817Z,24.48
2018-12-14T14:47:36.425Z,24.50
2018-12-14T14:50:04.337Z,24.56
2018-12-14T14:52:31.948Z,24.56
2018-12-14T14:54:59.674Z,24.44
2018-12-14T14:57:27.495Z,24.46
2018-12-14T14:59:55.102Z,24.53
2018-12-14T15:02:22.708Z,24.57
2018-12-14T15:04:50.311Z,24.58
2018-12-14T15:07:17.912Z,24.56
2018-12-14T15:09:45.519Z,24.58
2018-12-14T15:12:13.136Z,24.62
2018-12-14T15:14:40.774Z,24.62
2018-12-14T15:17:08.362Z,24.53
2018-12-14T15:19:35.949Z,24.52
2018-12-14T15:22:04.638Z,24.48
2018-12-14T15:24:32.619Z,24.53
2018-12-14T15:27:00.306Z,24.47
2018-12-14T15:29:27.925Z,24.58
2018-12-14T15:31:55.760Z,24.51
2018-12-14T15:34:23.354Z,24.49
2018-12-14T15:36:50.953Z,24.43
2018-12-14T15:39:18.545Z,24.52
2018-12-14T15:41:46.138Z,24.47
2018-12-14T15:44:13.901Z,24.45
2018-12-14T15:46:41.493Z,24.50
2018-12-14T15:49:09.079Z,24.46
2018-12-14T15:51:36.706Z,24.49
2018-12-14T15:54:04.396Z,24.47
2018-12-14T15:56:31.981Z,24.45
2018-12-14T15:58:59.616Z,24.46
2018-12-14T16:01:27.201Z,24.44
2018-12-14T16:03:54.816Z,24.48
2018-12-14T16:06:22.465Z,24.44
2018-12-14T16:08:50.052Z,24.48
2018-12-14T16:11:17.697Z,24.49
2018-12-14T16:13:45.366Z,24.46
2018-12-14T16:16:13.020Z,24.43
2018-12-14T16:18:40.636Z,24.51
2018-12-14T16:21:08.276Z,24.42
2018-12-14T16:23:35.996Z,24.51
2018-12-14T16:26:03.596Z,24.53
2018-12-14T16:28:31.433Z,24.53
2018-12-14T16:30:59.032Z,24.45
2018-12-14T16:33:26.620Z,24.42
2018-12-14T16:35:54.213Z,24.49
2018-12-14T16:38:21.845Z,24.38
2018-12-14T16:40:49.454Z,24.40
2018-12-14T16:43:17.037Z,24.36
2018-12-14T16:45:44.659Z,24.43
2018-12-14T16:48:12.257Z,24.40
2018-12-14T16:50:39.852Z,24.38
2018-12-14T16:53:07.451Z,24.35
2018-12-14T16:55:35.069Z,24.40
2018-12-14T16:58:02.700Z,24.39
2018-12-14T17:00:30.319Z,24.40
2018-12-14T17:02:57.912Z,24.44
2018-12-14T17:05:25.497Z,24.33
2018-12-14T17:07:53.108Z,24.35
2018-12-14T17:10:20.700Z,24.38
2018-12-14T17:12:48.577Z,24.33
2018-12-14T17:15:16.169Z,24.36
2018-12-14T17:17:43.752Z,24.37
2018-12-14T17:20:11.416Z,24.26
2018-12-14T17:22:39.024Z,24.38
2018-12-14T17:25:07.016Z,24.35
2018-12-14T17:27:34.595Z,24.46
2018-12-14T17:30:02.200Z,24.35
2018-12-14T17:32:29.772Z,24.28
2018-12-14T17:34:57.357Z,24.21
2018-12-14T17:37:24.940Z,24.30
2018-12-14T17:39:52.516Z,24.30
2018-12-14T17:42:20.108Z,24.30
2018-12-14T17:44:47.763Z,24.26
2018-12-14T17:47:15.377Z,24.29
2018-12-14T17:49:42.977Z,24.27
2018-12-14T17:52:10.556Z,24.23
2018-12-14T17:54:38.901Z,24.25
2018-12-14T17:57:06.497Z,24.23
2018-12-14T17:59:34.092Z,24.28
2018-12-14T18:02:01.709Z,24.26
2018-12-14T18:04:29.309Z,24.27
2018-12-14T18:06:56.933Z,24.22
2018-12-14T18:09:24.521Z,24.22
2018-12-14T18:11:52.113Z,24.16
2018-12-14T18:14:19.697Z,24.16
2018-12-14T18:16:47.304Z,24.16
2018-12-14T18:19:14.907Z,24.21
2018-12-14T18:21:42.489Z,24.25
2018-12-14T18:24:10.169Z,24.21
2018-12-14T18:26:37.793Z,24.22
2018-12-14T18:29:05.368Z,24.22
2018-12-14T18:31:32.953Z,24.20
2018-12-14T18:34:00.569Z,24.18
2018-12-14T18:36:28.140Z,24.20
2018-12-14T18:38:55.801Z,24.12
2018-12-14T18:41:23.409Z,24.19
2018-12-14T18:43:51.023Z,24.26
2018-12-14T18:46:18.605Z,24.12
2018-12-14T18:48:46.185Z,24.14
2018-12-14T18:51:13.801Z,24.16
2018-12-14T18:53:43.665Z,24.18
2018-12-14T18:56:11.265Z,24.20
2018-12-14T18:58:38.948Z,24.12
2018-12-14T19:01:06.617Z,24.22
2018-12-14T19:03:34.257Z,24.12
2018-12-14T19:06:01.877Z,24.06
2018-12-14T19:08:29.468Z,24.04
2018-12-14T19:10:57.064Z,24.06
2018-12-14T19:13:24.726Z,24.11
2018-12-14T19:15:52.325Z,24.08
2018-12-14T19:18:19.908Z,24.06
2018-12-14T19:20:47.502Z,23.97
2018-12-14T19:23:19.598Z,24.03
2018-12-14T19:25:44.721Z,23.98
2018-12-14T19:28:12.341Z,24.02
2018-12-14T19:30:39.962Z,24.00
2018-12-14T19:33:07.552Z,23.97
2018-12-14T19:35:35.149Z,24.03
2018-12-14T19:38:03.587Z,24.01
2018-12-14T19:40:31.175Z,23.97
2018-12-14T19:42:58.777Z,23.93
2018-12-14T19:45:26.500Z,24.01
2018-12-14T19:47:54.095Z,23.99
2018-12-14T19:50:21.782Z,24.01
2018-12-14T19:52:49.406Z,24.08
2018-12-14T19:55:17.013Z,24.13
2018-12-14T19:57:44.599Z,24.10
2018-12-14T20:00:12.273Z,24.09
2018-12-14T20:02:39.868Z,24.00
2018-12-14T20:05:07.988Z,24.06
2018-12-14T20:07:35.723Z,23.97
2018-12-14T20:10:03.573Z,23.98
2018-12-14T20:12:31.264Z,24.00
2018-12-14T20:14:58.937Z,24.00
2018-12-14T20:17:26.516Z,23.92
2018-12-14T20:19:54.105Z,23.95
2018-12-14T20:22:21.697Z,24.05
2018-12-14T20:24:49.333Z,24.04
2018-12-14T20:27:16.951Z,23.15
2018-12-14T20:29:45.471Z,24.00
2018-12-14T20:32:13.089Z,23.97
2018-12-14T20:34:40.768Z,23.87
2018-12-14T20:37:08.385Z,23.86
2018-12-14T20:39:36.016Z,23.93
2018-12-14T20:42:03.664Z,23.93
2018-12-14T20:44:31.465Z,23.92
2018-12-14T20:46:59.150Z,23.81
2018-12-14T20:49:26.783Z,23.92
2018-12-14T20:51:54.521Z,23.87
2018-12-14T20:54:22.246Z,23.87
2018-12-14T20:56:51.720Z,23.89
2018-12-14T20:59:19.758Z,23.35
2018-12-14T21:01:47.407Z,23.92
2018-12-14T21:04:15.058Z,23.87
2018-12-14T21:06:42.700Z,23.94
2018-12-14T21:09:10.378Z,23.83
2018-12-14T21:11:38.072Z,23.83
2018-12-14T21:14:05.670Z,23.73
2018-12-14T21:16:33.285Z,23.83
2018-12-14T21:19:00.924Z,23.76
2018-12-14T21:21:28.555Z,23.80
2018-12-14T21:23:56.161Z,23.83
2018-12-14T21:26:23.797Z,23.87
2018-12-14T21:28:51.441Z,23.80
2018-12-14T21:31:19.040Z,23.86
2018-12-14T21:33:46.661Z,23.71
2018-12-14T21:36:14.266Z,23.81
2018-12-14T21:38:41.933Z,23.78
2018-12-14T21:41:09.554Z,23.73
2018-12-14T21:43:37.152Z,23.73
2018-12-14T21:46:04.746Z,23.77
2018-12-14T21:48:32.402Z,23.79
2018-12-14T21:51:00.057Z,23.73
2018-12-14T21:53:27.677Z,23.70
2018-12-14T21:55:55.290Z,23.69
2018-12-14T21:58:22.909Z,23.40
2018-12-14T22:00:50.507Z,23.70
2018-12-14T22:03:18.206Z,23.78
2018-12-14T22:05:45.852Z,23.67
2018-12-14T22:08:13.516Z,23.68
2018-12-14T22:10:41.150Z,23.62
2018-12-14T22:13:08.789Z,23.63
2018-12-14T22:15:36.465Z,23.64
2018-12-14T22:18:04.099Z,23.66
2018-12-14T22:20:31.748Z,23.65
2018-12-14T22:22:59.373Z,23.64
2018-12-14T22:25:26.983Z,23.62
2018-12-14T22:27:54.634Z,23.60
2018-12-14T22:30:22.365Z,23.60
2018-12-14T22:32:49.982Z,23.57
2018-12-14T22:35:17.656Z,23.53
2018-12-14T22:37:45.292Z,23.55
2018-12-14T22:40:12.914Z,23.67
2018-12-14T22:42:40.572Z,23.69
2018-12-14T22:45:08.179Z,23.67
2018-12-14T22:47:35.829Z,23.68
2018-12-14T22:50:03.457Z,23.63
2018-12-14T22:52:31.188Z,23.61
2018-12-14T22:54:58.829Z,23.55
2018-12-14T22:57:26.439Z,23.65
2018-12-14T22:59:54.168Z,23.61
2018-12-14T23:02:21.867Z,23.58
2018-12-14T23:04:49.513Z,23.62
2018-12-14T23:07:17.120Z,23.55
2018-12-14T23:09:44.753Z,23.52
2018-12-14T23:12:12.434Z,23.52
2018-12-14T23:14:40.080Z,23.54
2018-12-14T23:17:07.722Z,23.43
2018-12-14T23:19:35.365Z,23.42
2018-12-14T23:22:02.989Z,23.40
2018-12-14T23:24:30.681Z,23.43
2018-12-14T23:26:58.284Z,23.45
2018-12-14T23:29:25.873Z,23.38
2018-12-14T23:31:53.541Z,23.39
2018-12-14T23:34:21.145Z,23.35
2018-12-14T23:36:48.774Z,23.37
2018-12-14T23:39:16.390Z,23.35
2018-12-14T23:41:44.012Z,21.29
2018-12-14T23:44:11.632Z,23.44
2018-12-14T23:46:39.325Z,23.33
2018-12-14T23:49:06.940Z,23.31
2018-12-14T23:51:34.594Z,23.34
2018-12-14T23:54:02.246Z,23.33
2018-12-14T23:56:29.934Z,23.32
2018-12-14T23:58:57.572Z,23.30
